createdAt,value
2023-05-22T00:00:37.425Z,2.55
2023-05-22T00:06:00.603Z,2.72
2023-05-22T00:11:06.388Z,3.63
2023-05-22T00:16:10.802Z,2.53
2023-05-22T00:21:15.297Z,2.92
2023-05-22T00:26:23.398Z,3.63
2023-05-22T00:31:27.646Z,2.75
2023-05-22T00:36:31.802Z,3.13
2023-05-22T00:41:38.900Z,3.08
2023-05-22T00:46:43.429Z,3.00
2023-05-22T00:51:47.637Z,3.03
2023-05-22T00:56:53.685Z,3.30
2023-05-22T01:01:58.264Z,2.83
2023-05-22T01:07:03.267Z,3.70
2023-05-22T01:12:21.705Z,3.03
2023-05-22T01:17:35.105Z,2.75
2023-05-22T01:23:04.246Z,2.72
2023-05-22T01:28:26.541Z,2.63
2023-05-22T01:33:37.441Z,2.60
2023-05-22T01:38:43.223Z,2.72
2023-05-22T01:43:48.011Z,11.82
2023-05-22T01:48:53.876Z,4.55
2023-05-22T01:54:06.373Z,9.13
2023-05-22T01:59:18.562Z,4.50
2023-05-22T02:04:25.661Z,4.28
2023-05-22T02:09:32.308Z,3.30
2023-05-22T02:14:37.333Z,6.35
2023-05-22T02:19:43.121Z,3.40
2023-05-22T02:24:50.249Z,3.78
2023-05-22T02:29:54.982Z,3.17
2023-05-22T02:35:00.543Z,3.28
2023-05-22T02:40:06.450Z,3.75
2023-05-22T02:45:11.882Z,3.63
2023-05-22T02:50:17.707Z,2.95
2023-05-22T02:55:22.066Z,5.55
2023-05-22T03:00:26.470Z,3.75
2023-05-22T03:05:34.017Z,3.70
2023-05-22T03:10:38.809Z,3.40
2023-05-22T03:15:43.338Z,3.22
2023-05-22T03:20:52.628Z,3.35
2023-05-22T03:25:57.067Z,2.95
2023-05-22T03:31:05.282Z,2.40
2023-05-22T03:36:19.630Z,3.25
2023-05-22T03:41:23.926Z,3.17
2023-05-22T03:46:28.881Z,2.53
2023-05-22T03:51:34.761Z,3.08
2023-05-22T03:56:39.159Z,3.65
2023-05-22T04:01:43.424Z,4.28
2023-05-22T04:06:50.038Z,2.97
2023-05-22T04:11:54.630Z,3.60
2023-05-22T04:16:59.673Z,3.83
2023-05-22T04:22:05.494Z,3.45
2023-05-22T04:27:10.204Z,4.10
2023-05-22T04:32:18.340Z,3.13
2023-05-22T04:37:24.978Z,3.22
2023-05-22T04:42:29.281Z,3.78
2023-05-22T04:47:34.409Z,3.15
2023-05-22T04:52:44.492Z,3.15
2023-05-22T04:57:48.984Z,2.88
2023-05-22T05:02:53.986Z,3.47
2023-05-22T05:07:59.692Z,3.70
2023-05-22T05:13:04.009Z,2.85
2023-05-22T05:18:10.083Z,2.72
2023-05-22T05:23:15.816Z,3.67
2023-05-22T05:28:20.080Z,3.58
2023-05-22T05:33:25.200Z,3.17
2023-05-22T05:38:42.393Z,2.75
2023-05-22T05:43:47.177Z,2.72
2023-05-22T05:48:51.513Z,2.45
2023-05-22T05:53:58.186Z,3.00
2023-05-22T05:59:04.225Z,3.30
2023-05-22T06:04:14.920Z,3.00
2023-05-22T06:09:23.647Z,2.92
2023-05-22T06:14:46.232Z,3.28
2023-05-22T06:19:52.479Z,3.10
2023-05-22T06:24:58.173Z,4.35
2023-05-22T06:30:05.680Z,4.30
2023-05-22T06:35:15.199Z,2.90
2023-05-22T06:40:21.162Z,2.92
2023-05-22T06:45:31.964Z,4.65
2023-05-22T06:51:02.186Z,7.60
2023-05-22T06:56:08.681Z,8.15
2023-05-22T07:01:31.829Z,5.13
2023-05-22T07:06:50.373Z,3.25
2023-05-22T07:11:57.057Z,3.90
2023-05-22T07:17:01.818Z,3.97
2023-05-22T07:22:12.432Z,3.10
2023-05-22T07:27:18.862Z,3.33
2023-05-22T07:32:26.045Z,2.40
2023-05-22T07:37:31.971Z,2.40
2023-05-22T07:42:38.689Z,2.65
2023-05-22T07:47:45.048Z,2.70
2023-05-22T07:52:50.155Z,2.67
2023-05-22T07:57:56.528Z,2.72
2023-05-22T08:03:08.964Z,3.08
2023-05-22T08:08:13.487Z,2.83
2023-05-22T08:13:19.860Z,2.83
2023-05-22T08:18:23.977Z,216.10
2023-05-22T08:23:28.396Z,138.05
2023-05-22T08:28:34.011Z,170.48
2023-05-22T08:33:38.401Z,3.10
2023-05-22T08:38:42.683Z,1.88
2023-05-22T08:43:48.780Z,2.40
2023-05-22T08:48:54.054Z,70.60
2023-05-22T08:53:58.646Z,177.40
2023-05-22T08:59:04.961Z,195.38
2023-05-22T09:04:09.699Z,211.70
2023-05-22T09:09:14.078Z,335.33
2023-05-22T09:14:20.308Z,3.15
2023-05-22T09:19:24.997Z,5.75
2023-05-22T09:24:29.602Z,2.88
2023-05-22T09:29:48.729Z,3.10
2023-05-22T09:34:53.162Z,2.05
2023-05-22T09:39:59.345Z,2.53
2023-05-22T09:45:10.185Z,2.72
2023-05-22T09:50:14.644Z,7.95
2023-05-22T09:55:21.960Z,5.90
2023-05-22T10:00:29.283Z,5.20
2023-05-22T10:05:34.221Z,3.35
2023-05-22T10:10:39.858Z,2.72
2023-05-22T10:15:48.304Z,3.78
2023-05-22T10:20:53.983Z,5.28
2023-05-22T10:25:59.685Z,3.15
2023-05-22T10:31:10.834Z,6.75
2023-05-22T10:36:21.756Z,5.40
2023-05-22T10:41:27.269Z,4.22
2023-05-22T10:46:35.573Z,7.80
2023-05-22T10:51:40.439Z,13.40
2023-05-22T10:56:45.744Z,4.75
2023-05-22T11:02:02.421Z,3.60
2023-05-22T11:07:09.019Z,5.95
2023-05-22T11:12:18.272Z,7.03
2023-05-22T11:17:26.164Z,14.25
2023-05-22T11:22:38.016Z,5.88
2023-05-22T11:27:43.113Z,3.13
2023-05-22T11:32:49.272Z,5.35
2023-05-22T11:37:56.411Z,19.50
2023-05-22T11:43:00.824Z,5.60
2023-05-22T11:48:06.617Z,3.33
2023-05-22T11:53:11.367Z,3.13
2023-05-22T11:58:15.733Z,3.25
2023-05-22T12:03:21.307Z,2.85
2023-05-22T12:08:26.566Z,4.18
2023-05-22T12:13:31.503Z,3.13
2023-05-22T12:18:38.697Z,2.30
2023-05-22T12:23:50.334Z,2.63
2023-05-22T12:28:55.738Z,2.42
2023-05-22T12:34:02.673Z,2.83
2023-05-22T12:39:09.547Z,3.50
2023-05-22T12:44:14.210Z,2.53
2023-05-22T12:49:20.214Z,2.22
2023-05-22T12:54:24.676Z,2.28
2023-05-22T12:59:29.144Z,2.85
2023-05-22T13:04:35.156Z,1.90
2023-05-22T13:09:39.617Z,2.33
2023-05-22T13:14:44.481Z,2.95
2023-05-22T13:19:50.201Z,5.07
2023-05-22T13:24:54.444Z,5.47
2023-05-22T13:29:58.860Z,8.45
2023-05-22T13:35:04.502Z,2.75
2023-05-22T13:40:10.805Z,2.33
2023-05-22T13:45:15.294Z,2.85
2023-05-22T13:50:21.167Z,5.40
2023-05-22T13:55:25.797Z,2.33
2023-05-22T14:00:30.104Z,3.05
2023-05-22T14:05:36.957Z,3.13
2023-05-22T14:10:42.285Z,2.97
2023-05-22T14:15:47.578Z,3.28
2023-05-22T14:20:53.185Z,2.35
2023-05-22T14:25:57.623Z,2.53
2023-05-22T14:31:02.155Z,2.95
2023-05-22T14:36:08.599Z,2.58
2023-05-22T14:41:13.351Z,2.60
2023-05-22T14:46:17.522Z,2.13
2023-05-22T14:51:23.489Z,2.33
2023-05-22T14:56:28.505Z,2.22
2023-05-22T15:01:32.712Z,2.88
2023-05-22T15:06:39.308Z,2.38
2023-05-22T15:11:46.915Z,2.92
2023-05-22T15:16:51.464Z,3.13
2023-05-22T15:22:00.749Z,2.80
2023-05-22T15:27:10.225Z,2.67
2023-05-22T15:32:14.482Z,2.47
2023-05-22T15:37:20.176Z,2.72
2023-05-22T15:42:25.004Z,2.55
2023-05-22T15:47:30.603Z,3.08
2023-05-22T15:52:36.217Z,2.55
2023-05-22T15:57:40.418Z,3.78
2023-05-22T16:02:44.843Z,2.83
2023-05-22T16:07:50.895Z,3.30
2023-05-22T16:12:55.145Z,3.00
2023-05-22T16:17:59.567Z,3.45
2023-05-22T16:23:05.506Z,3.38
2023-05-22T16:28:11.246Z,2.97
2023-05-22T16:33:15.548Z,6.82
2023-05-22T16:38:21.746Z,13.25
2023-05-22T16:43:26.398Z,6.20
2023-05-22T16:48:30.690Z,4.05
2023-05-22T16:53:38.349Z,4.95
2023-05-22T16:58:42.881Z,4.80
2023-05-22T17:03:48.040Z,10.45
2023-05-22T17:08:53.915Z,2.85
2023-05-22T17:13:58.120Z,8.27
2023-05-22T17:19:02.808Z,8.38
2023-05-22T17:24:12.681Z,4.75
2023-05-22T17:29:18.239Z,3.40
2023-05-22T17:34:22.407Z,3.10
2023-05-22T17:39:28.898Z,6.68
2023-05-22T17:44:33.367Z,6.90
2023-05-22T17:49:38.735Z,7.03
2023-05-22T17:54:44.389Z,6.50
2023-05-22T17:59:48.810Z,5.00
2023-05-22T18:04:53.189Z,5.25
2023-05-22T18:09:59.119Z,6.80
2023-05-22T18:15:04.730Z,3.30
2023-05-22T18:20:11.965Z,3.35
2023-05-22T18:25:18.016Z,3.95
2023-05-22T18:30:22.481Z,4.60
2023-05-22T18:35:27.384Z,5.07
2023-05-22T18:40:33.943Z,4.32
2023-05-22T18:45:38.312Z,10.13
2023-05-22T18:50:42.660Z,4.30
2023-05-22T18:55:49.276Z,3.60
2023-05-22T19:00:55.657Z,7.07
2023-05-22T19:05:59.970Z,5.75
2023-05-22T19:11:06.478Z,5.95
2023-05-22T19:16:10.648Z,6.75
2023-05-22T19:21:15.462Z,5.43
2023-05-22T19:26:21.541Z,9.32
2023-05-22T19:31:26.030Z,5.57
2023-05-22T19:36:31.447Z,8.25
2023-05-22T19:41:38.244Z,6.55
2023-05-22T19:46:42.563Z,6.15
2023-05-22T19:51:47.013Z,6.45
2023-05-22T19:56:53.279Z,5.80
2023-05-22T20:01:58.135Z,6.88
2023-05-22T20:07:03.928Z,9.90
2023-05-22T20:12:10.649Z,8.25
2023-05-22T20:17:15.504Z,9.20
2023-05-22T20:22:20.260Z,8.27
2023-05-22T20:27:26.081Z,5.90
2023-05-22T20:32:31.072Z,6.32
2023-05-22T20:37:36.140Z,5.43
2023-05-22T20:42:43.213Z,5.85
2023-05-22T20:47:48.663Z,6.95
2023-05-22T20:52:53.111Z,6.40
2023-05-22T20:57:58.839Z,6.70
2023-05-22T21:03:03.134Z,6.57
2023-05-22T21:08:08.054Z,6.47
2023-05-22T21:13:14.021Z,7.80
2023-05-22T21:18:19.917Z,6.53
2023-05-22T21:23:24.795Z,9.52
2023-05-22T21:28:30.501Z,6.53
2023-05-22T21:33:35.250Z,7.00
2023-05-22T21:38:39.614Z,6.55
2023-05-22T21:43:45.862Z,6.97
2023-05-22T21:48:50.251Z,6.75
2023-05-22T21:53:55.096Z,7.68
2023-05-22T21:59:00.651Z,6.90
2023-05-22T22:04:05.275Z,6.55
2023-05-22T22:09:09.504Z,5.97
2023-05-22T22:14:15.182Z,6.57
2023-05-22T22:19:19.896Z,9.93
2023-05-22T22:24:24.414Z,6.68
2023-05-22T22:29:30.396Z,8.07
2023-05-22T22:34:35.041Z,7.18
2023-05-22T22:39:39.382Z,6.28
2023-05-22T22:44:45.536Z,6.60
2023-05-22T22:49:50.007Z,6.60
2023-05-22T22:54:54.185Z,8.18
2023-05-22T23:00:00.296Z,7.45
2023-05-22T23:05:04.788Z,8.95
2023-05-22T23:10:10.871Z,8.18
2023-05-22T23:15:16.730Z,8.05
2023-05-22T23:20:21.493Z,7.70
2023-05-22T23:25:25.677Z,8.13
2023-05-22T23:30:31.271Z,9.05
2023-05-22T23:35:35.924Z,6.82
2023-05-22T23:40:40.389Z,7.03
2023-05-22T23:45:46.504Z,8.13
2023-05-22T23:50:50.675Z,7.40
2023-05-22T23:55:54.823Z,8.07
